KROA

Roanoke-Blacksburg Regional / Woodrum Field Airport

Roanoke, Virginia, USA
METAR KROA 252154Z 18009KT 10SM FEW060 SCT085 28/18 A2999 RMK AO2 SLP144 T02780178
Observed Flight Rules
May-25 @ 21:54 UTC (32 minutes ago) Visual Flight Rules
Wind Visibility Clouds
180° at 9 knots 10 miles
  • Few at 6,000' AGL
  • Scattered at 8,500' AGL
Temperatures Readings
Current 28°C / 82°F
Dewpoint 18°C / 64°F
Humidity 55%
Altimeter 29.99" Hg
Pressure 1014.4 hPa
Elevation 362
METAR KROA 252154Z 18009KT 10SM FEW060 SCT085 28/18 A2999 RMK AO2 SLP144 T02780178
Observed Flight Rules
May-25 @ 21:54 UTC
(32 minutes ago)
VFR
Wind Visibility
180° at 9 knots 10 miles
Clouds
  • Few at 6,000' AGL
  • Scattered at 8,500' AGL
Temperature Dewpoint
28°C / 82°F 18°C / 64°F
Humidity Altimeter Pressure
55% 29.99" Hg 1014.4 hPa